sensor_id;sensor_type;location;lat;lon;timestamp;pressure;altitude;pressure_sealevel;temperature
15626;BMP180;7912;51.376;6.126;2024-02-04T00:02:20;101983.00;;;14.50
15626;BMP180;7912;51.376;6.126;2024-02-04T00:04:52;101989.00;;;14.50
15626;BMP180;7912;51.376;6.126;2024-02-04T00:07:19;101990.00;;;14.50
15626;BMP180;7912;51.376;6.126;2024-02-04T00:09:47;101984.00;;;14.50
15626;BMP180;7912;51.376;6.126;2024-02-04T00:12:14;101978.00;;;14.50
15626;BMP180;7912;51.376;6.126;2024-02-04T00:14:41;101983.00;;;14.50
15626;BMP180;7912;51.376;6.126;2024-02-04T00:17:08;101975.00;;;14.50
15626;BMP180;7912;51.376;6.126;2024-02-04T00:19:36;101986.00;;;14.50
15626;BMP180;7912;51.376;6.126;2024-02-04T00:22:03;101980.00;;;14.40
15626;BMP180;7912;51.376;6.126;2024-02-04T00:24:31;101981.00;;;14.40
15626;BMP180;7912;51.376;6.126;2024-02-04T00:26:58;101982.00;;;14.40
15626;BMP180;7912;51.376;6.126;2024-02-04T00:29:25;101985.00;;;14.40
15626;BMP180;7912;51.376;6.126;2024-02-04T00:31:53;101982.00;;;14.40
15626;BMP180;7912;51.376;6.126;2024-02-04T00:34:20;101991.00;;;14.40
15626;BMP180;7912;51.376;6.126;2024-02-04T00:36:47;101985.00;;;14.40
15626;BMP180;7912;51.376;6.126;2024-02-04T00:39:16;101979.00;;;14.40
15626;BMP180;7912;51.376;6.126;2024-02-04T00:41:43;101978.00;;;14.40
15626;BMP180;7912;51.376;6.126;2024-02-04T00:44:10;101975.00;;;14.40
15626;BMP180;7912;51.376;6.126;2024-02-04T00:46:37;101992.00;;;14.40
15626;BMP180;7912;51.376;6.126;2024-02-04T00:49:05;101992.00;;;14.30
15626;BMP180;7912;51.376;6.126;2024-02-04T00:51:32;101998.00;;;14.30
15626;BMP180;7912;51.376;6.126;2024-02-04T00:54:00;101991.00;;;14.30
15626;BMP180;7912;51.376;6.126;2024-02-04T00:56:27;101976.00;;;14.30
15626;BMP180;7912;51.376;6.126;2024-02-04T00:58:54;101978.00;;;14.30
15626;BMP180;7912;51.376;6.126;2024-02-04T01:01:21;101989.00;;;14.30
15626;BMP180;7912;51.376;6.126;2024-02-04T01:03:49;101992.00;;;14.30
15626;BMP180;7912;51.376;6.126;2024-02-04T01:06:16;101989.00;;;14.30
15626;BMP180;7912;51.376;6.126;2024-02-04T01:08:44;101995.00;;;14.40
15626;BMP180;7912;51.376;6.126;2024-02-04T01:11:11;102001.00;;;14.40
15626;BMP180;7912;51.376;6.126;2024-02-04T01:13:39;101983.00;;;14.30
15626;BMP180;7912;51.376;6.126;2024-02-04T01:16:06;101996.00;;;14.30
15626;BMP180;7912;51.376;6.126;2024-02-04T01:18:33;101978.00;;;14.40
15626;BMP180;7912;51.376;6.126;2024-02-04T01:21:01;101985.00;;;14.30
15626;BMP180;7912;51.376;6.126;2024-02-04T01:23:28;101984.00;;;14.30
15626;BMP180;7912;51.376;6.126;2024-02-04T01:25:55;101970.00;;;14.30
15626;BMP180;7912;51.376;6.126;2024-02-04T01:28:22;101985.00;;;14.30
15626;BMP180;7912;51.376;6.126;2024-02-04T01:30:50;101981.00;;;14.30
15626;BMP180;7912;51.376;6.126;2024-02-04T01:33:17;101985.00;;;14.30
15626;BMP180;7912;51.376;6.126;2024-02-04T01:35:45;101981.00;;;14.30
15626;BMP180;7912;51.376;6.126;2024-02-04T01:38:12;101978.00;;;14.30
15626;BMP180;7912;51.376;6.126;2024-02-04T01:40:39;101978.00;;;14.30
15626;BMP180;7912;51.376;6.126;2024-02-04T01:43:07;101989.00;;;14.40
15626;BMP180;7912;51.376;6.126;2024-02-04T01:45:34;101976.00;;;14.40
15626;BMP180;7912;51.376;6.126;2024-02-04T01:48:01;101990.00;;;14.40
15626;BMP180;7912;51.376;6.126;2024-02-04T01:50:29;101984.00;;;14.40
15626;BMP180;7912;51.376;6.126;2024-02-04T01:52:57;101996.00;;;14.40
15626;BMP180;7912;51.376;6.126;2024-02-04T01:55:25;101984.00;;;14.40
15626;BMP180;7912;51.376;6.126;2024-02-04T01:57:52;101989.00;;;14.40
15626;BMP180;7912;51.376;6.126;2024-02-04T02:00:20;101990.00;;;14.40
15626;BMP180;7912;51.376;6.126;2024-02-04T02:02:49;101998.00;;;14.50
15626;BMP180;7912;51.376;6.126;2024-02-04T02:05:18;101995.00;;;14.40
15626;BMP180;7912;51.376;6.126;2024-02-04T02:07:46;101988.00;;;14.40
15626;BMP180;7912;51.376;6.126;2024-02-04T02:10:19;101991.00;;;14.50
15626;BMP180;7912;51.376;6.126;2024-02-04T02:12:51;101994.00;;;14.50
15626;BMP180;7912;51.376;6.126;2024-02-04T02:15:24;101986.00;;;14.50
15626;BMP180;7912;51.376;6.126;2024-02-04T02:18:03;101979.00;;;14.50
15626;BMP180;7912;51.376;6.126;2024-02-04T02:24:10;101999.00;;;14.50
15626;BMP180;7912;51.376;6.126;2024-02-04T02:26:38;102002.00;;;14.50
15626;BMP180;7912;51.376;6.126;2024-02-04T02:29:06;101996.00;;;14.50
15626;BMP180;7912;51.376;6.126;2024-02-04T02:31:37;101983.00;;;14.50
15626;BMP180;7912;51.376;6.126;2024-02-04T02:34:15;101997.00;;;14.50
15626;BMP180;7912;51.376;6.126;2024-02-04T02:37:22;101986.00;;;14.50
15626;BMP180;7912;51.376;6.126;2024-02-04T02:42:44;101984.00;;;14.50
15626;BMP180;7912;51.376;6.126;2024-02-04T02:45:13;101986.00;;;14.60
15626;BMP180;7912;51.376;6.126;2024-02-04T02:47:42;101977.00;;;14.60
15626;BMP180;7912;51.376;6.126;2024-02-04T02:50:13;101971.00;;;14.60
15626;BMP180;7912;51.376;6.126;2024-02-04T02:52:41;101977.00;;;14.60
15626;BMP180;7912;51.376;6.126;2024-02-04T02:55:08;101978.00;;;14.60
15626;BMP180;7912;51.376;6.126;2024-02-04T02:57:35;101968.00;;;14.60
15626;BMP180;7912;51.376;6.126;2024-02-04T03:00:03;101965.00;;;14.70
15626;BMP180;7912;51.376;6.126;2024-02-04T03:02:32;101956.00;;;14.60
15626;BMP180;7912;51.376;6.126;2024-02-04T03:05:00;101956.00;;;14.60
15626;BMP180;7912;51.376;6.126;2024-02-04T03:07:27;101943.00;;;14.70
15626;BMP180;7912;51.376;6.126;2024-02-04T03:09:55;101966.00;;;14.70
15626;BMP180;7912;51.376;6.126;2024-02-04T03:12:22;101956.00;;;14.60
15626;BMP180;7912;51.376;6.126;2024-02-04T03:14:49;101960.00;;;14.70
15626;BMP180;7912;51.376;6.126;2024-02-04T03:17:17;101949.00;;;14.60
15626;BMP180;7912;51.376;6.126;2024-02-04T03:19:51;101949.00;;;14.60
15626;BMP180;7912;51.376;6.126;2024-02-04T03:22:22;101948.00;;;14.60
15626;BMP180;7912;51.376;6.126;2024-02-04T03:24:49;101958.00;;;14.60
15626;BMP180;7912;51.376;6.126;2024-02-04T03:27:18;101958.00;;;14.60
15626;BMP180;7912;51.376;6.126;2024-02-04T03:29:45;101962.00;;;14.60
15626;BMP180;7912;51.376;6.126;2024-02-04T03:32:12;101956.00;;;14.60
15626;BMP180;7912;51.376;6.126;2024-02-04T03:34:43;101965.00;;;14.60
15626;BMP180;7912;51.376;6.126;2024-02-04T03:37:10;101958.00;;;14.60
15626;BMP180;7912;51.376;6.126;2024-02-04T03:39:38;101970.00;;;14.60
15626;BMP180;7912;51.376;6.126;2024-02-04T03:42:05;101956.00;;;14.60
15626;BMP180;7912;51.376;6.126;2024-02-04T03:44:32;101965.00;;;14.60
15626;BMP180;7912;51.376;6.126;2024-02-04T03:46:59;101975.00;;;14.60
15626;BMP180;7912;51.376;6.126;2024-02-04T03:49:27;101957.00;;;14.50
15626;BMP180;7912;51.376;6.126;2024-02-04T03:51:54;101960.00;;;14.50
15626;BMP180;7912;51.376;6.126;2024-02-04T03:54:22;101956.00;;;14.50
15626;BMP180;7912;51.376;6.126;2024-02-04T03:56:49;101954.00;;;14.50
15626;BMP180;7912;51.376;6.126;2024-02-04T03:59:16;101963.00;;;14.50
15626;BMP180;7912;51.376;6.126;2024-02-04T04:01:50;101959.00;;;14.50
15626;BMP180;7912;51.376;6.126;2024-02-04T04:04:23;101957.00;;;14.50
15626;BMP180;7912;51.376;6.126;2024-02-04T04:06:53;101948.00;;;14.50
15626;BMP180;7912;51.376;6.126;2024-02-04T04:09:21;101957.00;;;14.60
15626;BMP180;7912;51.376;6.126;2024-02-04T04:11:48;101961.00;;;14.60
15626;BMP180;7912;51.376;6.126;2024-02-04T04:14:15;101952.00;;;14.60
15626;BMP180;7912;51.376;6.126;2024-02-04T04:16:42;101965.00;;;14.60
15626;BMP180;7912;51.376;6.126;2024-02-04T04:19:09;101970.00;;;14.60
15626;BMP180;7912;51.376;6.126;2024-02-04T04:21:38;101969.00;;;14.60
15626;BMP180;7912;51.376;6.126;2024-02-04T04:24:05;101967.00;;;14.60
15626;BMP180;7912;51.376;6.126;2024-02-04T04:26:33;101970.00;;;14.60
15626;BMP180;7912;51.376;6.126;2024-02-04T04:29:01;101983.00;;;14.60
15626;BMP180;7912;51.376;6.126;2024-02-04T04:31:28;101979.00;;;14.60
15626;BMP180;7912;51.376;6.126;2024-02-04T04:33:56;101996.00;;;14.60
15626;BMP180;7912;51.376;6.126;2024-02-04T04:36:23;101994.00;;;14.70
15626;BMP180;7912;51.376;6.126;2024-02-04T04:38:53;101979.00;;;14.70
15626;BMP180;7912;51.376;6.126;2024-02-04T04:41:20;101980.00;;;14.70
15626;BMP180;7912;51.376;6.126;2024-02-04T04:43:47;101958.00;;;14.70
15626;BMP180;7912;51.376;6.126;2024-02-04T04:46:17;101943.00;;;14.70
15626;BMP180;7912;51.376;6.126;2024-02-04T04:48:45;101945.00;;;14.70
15626;BMP180;7912;51.376;6.126;2024-02-04T04:51:12;101948.00;;;14.70
15626;BMP180;7912;51.376;6.126;2024-02-04T04:53:40;101932.00;;;14.70
15626;BMP180;7912;51.376;6.126;2024-02-04T04:56:07;101948.00;;;14.70
15626;BMP180;7912;51.376;6.126;2024-02-04T04:58:35;101948.00;;;14.70
15626;BMP180;7912;51.376;6.126;2024-02-04T05:01:02;101938.00;;;14.70
15626;BMP180;7912;51.376;6.126;2024-02-04T05:03:31;101928.00;;;14.70
15626;BMP180;7912;51.376;6.126;2024-02-04T05:05:59;101930.00;;;14.70
15626;BMP180;7912;51.376;6.126;2024-02-04T05:08:28;101926.00;;;14.70
15626;BMP180;7912;51.376;6.126;2024-02-04T05:10:55;101923.00;;;14.70
15626;BMP180;7912;51.376;6.126;2024-02-04T05:13:22;101926.00;;;14.80
15626;BMP180;7912;51.376;6.126;2024-02-04T05:15:49;101922.00;;;14.80
15626;BMP180;7912;51.376;6.126;2024-02-04T05:18:17;101921.00;;;14.80
15626;BMP180;7912;51.376;6.126;2024-02-04T05:20:44;101923.00;;;14.80
15626;BMP180;7912;51.376;6.126;2024-02-04T05:23:11;101893.00;;;14.80
15626;BMP180;7912;51.376;6.126;2024-02-04T05:25:38;101914.00;;;14.80
15626;BMP180;7912;51.376;6.126;2024-02-04T05:28:06;101904.00;;;14.80
15626;BMP180;7912;51.376;6.126;2024-02-04T05:30:33;101922.00;;;14.80
15626;BMP180;7912;51.376;6.126;2024-02-04T05:33:01;101902.00;;;14.90
15626;BMP180;7912;51.376;6.126;2024-02-04T05:35:28;101910.00;;;14.80
15626;BMP180;7912;51.376;6.126;2024-02-04T05:37:55;101893.00;;;14.80
15626;BMP180;7912;51.376;6.126;2024-02-04T05:40:22;101897.00;;;14.90
15626;BMP180;7912;51.376;6.126;2024-02-04T05:42:51;101897.00;;;14.90
15626;BMP180;7912;51.376;6.126;2024-02-04T05:45:18;101889.00;;;14.90
15626;BMP180;7912;51.376;6.126;2024-02-04T05:47:46;101898.00;;;14.90
15626;BMP180;7912;51.376;6.126;2024-02-04T05:50:13;101900.00;;;14.90
15626;BMP180;7912;51.376;6.126;2024-02-04T05:52:43;101892.00;;;14.90
15626;BMP180;7912;51.376;6.126;2024-02-04T05:55:13;101901.00;;;14.80
15626;BMP180;7912;51.376;6.126;2024-02-04T05:57:41;101905.00;;;14.80
15626;BMP180;7912;51.376;6.126;2024-02-04T06:00:10;101899.00;;;14.80
15626;BMP180;7912;51.376;6.126;2024-02-04T06:02:37;101884.00;;;14.80
15626;BMP180;7912;51.376;6.126;2024-02-04T06:05:04;101898.00;;;14.80
15626;BMP180;7912;51.376;6.126;2024-02-04T06:07:32;101907.00;;;14.70
15626;BMP180;7912;51.376;6.126;2024-02-04T06:09:59;101917.00;;;14.70
15626;BMP180;7912;51.376;6.126;2024-02-04T06:12:27;101913.00;;;14.70
15626;BMP180;7912;51.376;6.126;2024-02-04T06:14:54;101906.00;;;14.70
15626;BMP180;7912;51.376;6.126;2024-02-04T06:17:22;101905.00;;;14.70
15626;BMP180;7912;51.376;6.126;2024-02-04T06:19:49;101901.00;;;14.70
15626;BMP180;7912;51.376;6.126;2024-02-04T06:22:16;101907.00;;;14.70
15626;BMP180;7912;51.376;6.126;2024-02-04T06:24:43;101901.00;;;14.70
15626;BMP180;7912;51.376;6.126;2024-02-04T06:27:11;101891.00;;;14.60
15626;BMP180;7912;51.376;6.126;2024-02-04T06:29:38;101886.00;;;14.60
15626;BMP180;7912;51.376;6.126;2024-02-04T06:32:07;101890.00;;;14.60
15626;BMP180;7912;51.376;6.126;2024-02-04T06:34:35;101896.00;;;14.60
15626;BMP180;7912;51.376;6.126;2024-02-04T06:37:02;101884.00;;;14.60
15626;BMP180;7912;51.376;6.126;2024-02-04T06:39:30;101885.00;;;14.60
15626;BMP180;7912;51.376;6.126;2024-02-04T06:41:57;101869.00;;;14.60
15626;BMP180;7912;51.376;6.126;2024-02-04T06:44:25;101873.00;;;14.60
15626;BMP180;7912;51.376;6.126;2024-02-04T06:46:52;101863.00;;;14.60
15626;BMP180;7912;51.376;6.126;2024-02-04T06:49:19;101875.00;;;14.60
15626;BMP180;7912;51.376;6.126;2024-02-04T06:51:47;101864.00;;;14.60
15626;BMP180;7912;51.376;6.126;2024-02-04T06:54:14;101855.00;;;14.60
15626;BMP180;7912;51.376;6.126;2024-02-04T06:56:42;101859.00;;;14.50
15626;BMP180;7912;51.376;6.126;2024-02-04T06:59:09;101862.00;;;14.50
15626;BMP180;7912;51.376;6.126;2024-02-04T07:01:36;101869.00;;;14.50
15626;BMP180;7912;51.376;6.126;2024-02-04T07:04:04;101861.00;;;14.50
15626;BMP180;7912;51.376;6.126;2024-02-04T07:06:34;101876.00;;;14.50
15626;BMP180;7912;51.376;6.126;2024-02-04T07:09:01;101859.00;;;14.50
15626;BMP180;7912;51.376;6.126;2024-02-04T07:11:29;101882.00;;;14.50
15626;BMP180;7912;51.376;6.126;2024-02-04T07:13:56;101877.00;;;14.50
15626;BMP180;7912;51.376;6.126;2024-02-04T07:16:28;101885.00;;;14.50
15626;BMP180;7912;51.376;6.126;2024-02-04T07:18:55;101897.00;;;14.50
15626;BMP180;7912;51.376;6.126;2024-02-04T07:21:23;101877.00;;;14.50
15626;BMP180;7912;51.376;6.126;2024-02-04T07:23:50;101871.00;;;14.50
15626;BMP180;7912;51.376;6.126;2024-02-04T07:26:17;101888.00;;;14.50
15626;BMP180;7912;51.376;6.126;2024-02-04T07:28:45;101899.00;;;14.50
15626;BMP180;7912;51.376;6.126;2024-02-04T07:31:12;101915.00;;;14.50
15626;BMP180;7912;51.376;6.126;2024-02-04T07:33:39;101917.00;;;14.50
15626;BMP180;7912;51.376;6.126;2024-02-04T07:36:08;101900.00;;;14.50
15626;BMP180;7912;51.376;6.126;2024-02-04T07:38:35;101896.00;;;14.50
15626;BMP180;7912;51.376;6.126;2024-02-04T07:41:03;101891.00;;;14.50
15626;BMP180;7912;51.376;6.126;2024-02-04T07:43:30;101894.00;;;14.50
15626;BMP180;7912;51.376;6.126;2024-02-04T07:45:57;101890.00;;;14.50
15626;BMP180;7912;51.376;6.126;2024-02-04T07:48:28;101899.00;;;14.50
15626;BMP180;7912;51.376;6.126;2024-02-04T07:50:56;101880.00;;;14.50
15626;BMP180;7912;51.376;6.126;2024-02-04T07:53:23;101879.00;;;14.50
15626;BMP180;7912;51.376;6.126;2024-02-04T07:55:50;101887.00;;;14.50
15626;BMP180;7912;51.376;6.126;2024-02-04T07:58:18;101883.00;;;14.50
15626;BMP180;7912;51.376;6.126;2024-02-04T08:00:45;101877.00;;;14.50
15626;BMP180;7912;51.376;6.126;2024-02-04T08:03:13;101886.00;;;14.60
15626;BMP180;7912;51.376;6.126;2024-02-04T08:05:40;101880.00;;;14.60
15626;BMP180;7912;51.376;6.126;2024-02-04T08:08:07;101880.00;;;14.50
15626;BMP180;7912;51.376;6.126;2024-02-04T08:10:34;101873.00;;;14.60
15626;BMP180;7912;51.376;6.126;2024-02-04T08:13:02;101871.00;;;14.60
15626;BMP180;7912;51.376;6.126;2024-02-04T08:15:29;101862.00;;;14.60
15626;BMP180;7912;51.376;6.126;2024-02-04T08:17:56;101873.00;;;14.70
15626;BMP180;7912;51.376;6.126;2024-02-04T08:20:24;101859.00;;;14.70
15626;BMP180;7912;51.376;6.126;2024-02-04T08:22:52;101870.00;;;14.70
15626;BMP180;7912;51.376;6.126;2024-02-04T08:25:35;101875.00;;;14.70
15626;BMP180;7912;51.376;6.126;2024-02-04T08:28:02;101879.00;;;14.70
15626;BMP180;7912;51.376;6.126;2024-02-04T08:30:30;101887.00;;;14.70
15626;BMP180;7912;51.376;6.126;2024-02-04T08:32:58;101875.00;;;14.70
15626;BMP180;7912;51.376;6.126;2024-02-04T08:35:25;101873.00;;;14.70
15626;BMP180;7912;51.376;6.126;2024-02-04T08:37:52;101870.00;;;14.70
15626;BMP180;7912;51.376;6.126;2024-02-04T08:40:19;101865.00;;;14.70
15626;BMP180;7912;51.376;6.126;2024-02-04T08:42:47;101856.00;;;14.70
15626;BMP180;7912;51.376;6.126;2024-02-04T08:45:14;101864.00;;;14.70
15626;BMP180;7912;51.376;6.126;2024-02-04T08:47:41;101857.00;;;14.80
15626;BMP180;7912;51.376;6.126;2024-02-04T08:50:09;101875.00;;;14.80
15626;BMP180;7912;51.376;6.126;2024-02-04T08:52:39;101876.00;;;14.90
15626;BMP180;7912;51.376;6.126;2024-02-04T08:55:06;101870.00;;;14.90
15626;BMP180;7912;51.376;6.126;2024-02-04T08:57:34;101857.00;;;15.00
15626;BMP180;7912;51.376;6.126;2024-02-04T09:00:02;101856.00;;;15.00
15626;BMP180;7912;51.376;6.126;2024-02-04T09:02:29;101861.00;;;15.00
15626;BMP180;7912;51.376;6.126;2024-02-04T09:04:56;101859.00;;;15.10
15626;BMP180;7912;51.376;6.126;2024-02-04T09:07:23;101857.00;;;15.10
15626;BMP180;7912;51.376;6.126;2024-02-04T09:09:51;101863.00;;;15.20
15626;BMP180;7912;51.376;6.126;2024-02-04T09:12:18;101865.00;;;15.20
15626;BMP180;7912;51.376;6.126;2024-02-04T09:14:45;101876.00;;;15.20
15626;BMP180;7912;51.376;6.126;2024-02-04T09:17:12;101873.00;;;15.20
15626;BMP180;7912;51.376;6.126;2024-02-04T09:19:40;101882.00;;;15.20
15626;BMP180;7912;51.376;6.126;2024-02-04T09:22:09;101892.00;;;15.20
15626;BMP180;7912;51.376;6.126;2024-02-04T09:24:36;101888.00;;;15.20
15626;BMP180;7912;51.376;6.126;2024-02-04T09:27:06;101890.00;;;15.20
15626;BMP180;7912;51.376;6.126;2024-02-04T09:29:33;101892.00;;;15.10
15626;BMP180;7912;51.376;6.126;2024-02-04T09:35:17;101890.00;;;15.00
15626;BMP180;7912;51.376;6.126;2024-02-04T09:37:45;101892.00;;;15.00
15626;BMP180;7912;51.376;6.126;2024-02-04T09:40:16;101876.00;;;15.00
15626;BMP180;7912;51.376;6.126;2024-02-04T09:42:44;101891.00;;;15.00
15626;BMP180;7912;51.376;6.126;2024-02-04T09:45:14;101898.00;;;15.00
15626;BMP180;7912;51.376;6.126;2024-02-04T09:47:46;101891.00;;;15.00
15626;BMP180;7912;51.376;6.126;2024-02-04T09:50:13;101881.00;;;15.00
15626;BMP180;7912;51.376;6.126;2024-02-04T09:52:53;101879.00;;;15.00
15626;BMP180;7912;51.376;6.126;2024-02-04T09:55:23;101873.00;;;15.00
15626;BMP180;7912;51.376;6.126;2024-02-04T09:57:51;101878.00;;;15.10
15626;BMP180;7912;51.376;6.126;2024-02-04T10:00:19;101886.00;;;15.10
15626;BMP180;7912;51.376;6.126;2024-02-04T10:03:04;101878.00;;;15.20
15626;BMP180;7912;51.376;6.126;2024-02-04T10:05:35;101888.00;;;15.20
15626;BMP180;7912;51.376;6.126;2024-02-04T10:08:03;101873.00;;;15.20
15626;BMP180;7912;51.376;6.126;2024-02-04T10:10:31;101880.00;;;15.20
15626;BMP180;7912;51.376;6.126;2024-02-04T10:13:07;101878.00;;;15.30
15626;BMP180;7912;51.376;6.126;2024-02-04T10:15:35;101875.00;;;15.30
15626;BMP180;7912;51.376;6.126;2024-02-04T10:18:07;101880.00;;;15.30
15626;BMP180;7912;51.376;6.126;2024-02-04T10:20:35;101878.00;;;15.30
15626;BMP180;7912;51.376;6.126;2024-02-04T10:23:05;101882.00;;;15.30
15626;BMP180;7912;51.376;6.126;2024-02-04T10:25:35;101883.00;;;15.30
15626;BMP180;7912;51.376;6.126;2024-02-04T10:28:03;101880.00;;;15.20
15626;BMP180;7912;51.376;6.126;2024-02-04T10:30:30;101900.00;;;15.20
15626;BMP180;7912;51.376;6.126;2024-02-04T10:32:59;101898.00;;;15.10
15626;BMP180;7912;51.376;6.126;2024-02-04T10:35:26;101889.00;;;15.20
15626;BMP180;7912;51.376;6.126;2024-02-04T10:37:53;101896.00;;;15.10
15626;BMP180;7912;51.376;6.126;2024-02-04T10:40:21;101897.00;;;15.10
15626;BMP180;7912;51.376;6.126;2024-02-04T10:42:50;101889.00;;;15.10
15626;BMP180;7912;51.376;6.126;2024-02-04T10:45:21;101899.00;;;15.00
15626;BMP180;7912;51.376;6.126;2024-02-04T10:47:56;101899.00;;;15.00
15626;BMP180;7912;51.376;6.126;2024-02-04T10:50:27;101901.00;;;15.00
15626;BMP180;7912;51.376;6.126;2024-02-04T10:53:04;101900.00;;;14.90
15626;BMP180;7912;51.376;6.126;2024-02-04T10:55:41;101906.00;;;14.90
15626;BMP180;7912;51.376;6.126;2024-02-04T10:58:13;101895.00;;;14.90
15626;BMP180;7912;51.376;6.126;2024-02-04T11:00:45;101891.00;;;15.00
15626;BMP180;7912;51.376;6.126;2024-02-04T11:03:17;101882.00;;;15.00
15626;BMP180;7912;51.376;6.126;2024-02-04T11:05:49;101865.00;;;15.00
15626;BMP180;7912;51.376;6.126;2024-02-04T11:08:18;101874.00;;;15.00
15626;BMP180;7912;51.376;6.126;2024-02-04T11:10:46;101870.00;;;15.00
15626;BMP180;7912;51.376;6.126;2024-02-04T11:13:15;101856.00;;;15.00
15626;BMP180;7912;51.376;6.126;2024-02-04T11:15:44;101850.00;;;15.00
15626;BMP180;7912;51.376;6.126;2024-02-04T11:18:36;101853.00;;;14.90
15626;BMP180;7912;51.376;6.126;2024-02-04T11:21:34;101858.00;;;14.90
15626;BMP180;7912;51.376;6.126;2024-02-04T11:26:54;101845.00;;;14.90
15626;BMP180;7912;51.376;6.126;2024-02-04T11:29:22;101850.00;;;14.90
15626;BMP180;7912;51.376;6.126;2024-02-04T11:31:51;101847.00;;;15.00
15626;BMP180;7912;51.376;6.126;2024-02-04T11:34:18;101839.00;;;15.00
15626;BMP180;7912;51.376;6.126;2024-02-04T11:36:46;101833.00;;;15.00
15626;BMP180;7912;51.376;6.126;2024-02-04T11:39:23;101839.00;;;15.00
15626;BMP180;7912;51.376;6.126;2024-02-04T11:41:52;101835.00;;;15.10
15626;BMP180;7912;51.376;6.126;2024-02-04T11:44:26;101825.00;;;15.10
15626;BMP180;7912;51.376;6.126;2024-02-04T11:46:55;101816.00;;;15.10
15626;BMP180;7912;51.376;6.126;2024-02-04T11:49:25;101824.00;;;15.10
15626;BMP180;7912;51.376;6.126;2024-02-04T11:51:54;101823.00;;;15.10
15626;BMP180;7912;51.376;6.126;2024-02-04T11:54:21;101820.00;;;15.10
15626;BMP180;7912;51.376;6.126;2024-02-04T11:56:52;101818.00;;;15.10
15626;BMP180;7912;51.376;6.126;2024-02-04T11:59:26;101816.00;;;15.10
15626;BMP180;7912;51.376;6.126;2024-02-04T12:02:04;101830.00;;;15.10
15626;BMP180;7912;51.376;6.126;2024-02-04T12:04:34;101813.00;;;15.00
15626;BMP180;7912;51.376;6.126;2024-02-04T12:07:02;101820.00;;;15.10
15626;BMP180;7912;51.376;6.126;2024-02-04T12:09:31;101820.00;;;15.10
15626;BMP180;7912;51.376;6.126;2024-02-04T12:11:59;101816.00;;;15.10
15626;BMP180;7912;51.376;6.126;2024-02-04T12:14:28;101819.00;;;15.10
15626;BMP180;7912;51.376;6.126;2024-02-04T12:16:56;101814.00;;;15.20
15626;BMP180;7912;51.376;6.126;2024-02-04T12:19:27;101809.00;;;15.20
15626;BMP180;7912;51.376;6.126;2024-02-04T12:21:54;101804.00;;;15.20
15626;BMP180;7912;51.376;6.126;2024-02-04T12:24:22;101807.00;;;15.30
15626;BMP180;7912;51.376;6.126;2024-02-04T12:26:49;101797.00;;;15.20
15626;BMP180;7912;51.376;6.126;2024-02-04T12:29:17;101798.00;;;15.20
15626;BMP180;7912;51.376;6.126;2024-02-04T12:31:44;101793.00;;;15.20
15626;BMP180;7912;51.376;6.126;2024-02-04T12:34:13;101786.00;;;15.20
15626;BMP180;7912;51.376;6.126;2024-02-04T12:36:41;101783.00;;;15.20
15626;BMP180;7912;51.376;6.126;2024-02-04T12:39:15;101791.00;;;15.10
15626;BMP180;7912;51.376;6.126;2024-02-04T12:41:42;101784.00;;;15.10
15626;BMP180;7912;51.376;6.126;2024-02-04T12:44:09;101801.00;;;15.10
15626;BMP180;7912;51.376;6.126;2024-02-04T12:46:36;101793.00;;;15.10
15626;BMP180;7912;51.376;6.126;2024-02-04T12:49:04;101794.00;;;15.10
15626;BMP180;7912;51.376;6.126;2024-02-04T12:51:33;101786.00;;;15.10
15626;BMP180;7912;51.376;6.126;2024-02-04T12:54:09;101773.00;;;15.10
15626;BMP180;7912;51.376;6.126;2024-02-04T12:56:50;101772.00;;;15.10
15626;BMP180;7912;51.376;6.126;2024-02-04T12:59:31;101772.00;;;15.10
15626;BMP180;7912;51.376;6.126;2024-02-04T13:02:04;101781.00;;;15.10
15626;BMP180;7912;51.376;6.126;2024-02-04T13:04:40;101778.00;;;15.10
15626;BMP180;7912;51.376;6.126;2024-02-04T13:07:13;101769.00;;;15.10
15626;BMP180;7912;51.376;6.126;2024-02-04T13:09:42;101770.00;;;15.00
15626;BMP180;7912;51.376;6.126;2024-02-04T13:12:11;101764.00;;;15.00
15626;BMP180;7912;51.376;6.126;2024-02-04T13:14:39;101769.00;;;15.00
15626;BMP180;7912;51.376;6.126;2024-02-04T13:17:11;101764.00;;;15.00
15626;BMP180;7912;51.376;6.126;2024-02-04T13:19:40;101764.00;;;15.00
15626;BMP180;7912;51.376;6.126;2024-02-04T13:22:08;101764.00;;;15.00
15626;BMP180;7912;51.376;6.126;2024-02-04T13:24:41;101765.00;;;15.00
15626;BMP180;7912;51.376;6.126;2024-02-04T13:27:09;101778.00;;;15.00
15626;BMP180;7912;51.376;6.126;2024-02-04T13:29:36;101771.00;;;15.00
15626;BMP180;7912;51.376;6.126;2024-02-04T13:32:05;101780.00;;;15.10
15626;BMP180;7912;51.376;6.126;2024-02-04T13:34:32;101775.00;;;15.10
15626;BMP180;7912;51.376;6.126;2024-02-04T13:37:02;101775.00;;;15.10
15626;BMP180;7912;51.376;6.126;2024-02-04T13:39:35;101775.00;;;15.20
15626;BMP180;7912;51.376;6.126;2024-02-04T13:42:02;101783.00;;;15.20
15626;BMP180;7912;51.376;6.126;2024-02-04T13:44:30;101780.00;;;15.20
15626;BMP180;7912;51.376;6.126;2024-02-04T13:46:57;101779.00;;;15.20
15626;BMP180;7912;51.376;6.126;2024-02-04T13:49:26;101771.00;;;15.20
15626;BMP180;7912;51.376;6.126;2024-02-04T13:51:54;101761.00;;;15.20
15626;BMP180;7912;51.376;6.126;2024-02-04T13:54:21;101762.00;;;15.30
15626;BMP180;7912;51.376;6.126;2024-02-04T13:56:48;101756.00;;;15.20
15626;BMP180;7912;51.376;6.126;2024-02-04T13:59:17;101763.00;;;15.30
15626;BMP180;7912;51.376;6.126;2024-02-04T14:01:47;101751.00;;;15.30
15626;BMP180;7912;51.376;6.126;2024-02-04T14:04:15;101746.00;;;15.30
15626;BMP180;7912;51.376;6.126;2024-02-04T14:06:42;101745.00;;;15.40
15626;BMP180;7912;51.376;6.126;2024-02-04T14:09:10;101740.00;;;15.40
15626;BMP180;7912;51.376;6.126;2024-02-04T14:11:40;101736.00;;;15.50
15626;BMP180;7912;51.376;6.126;2024-02-04T14:14:10;101744.00;;;15.50
15626;BMP180;7912;51.376;6.126;2024-02-04T14:16:37;101745.00;;;15.60
15626;BMP180;7912;51.376;6.126;2024-02-04T14:19:05;101751.00;;;15.60
15626;BMP180;7912;51.376;6.126;2024-02-04T14:21:32;101744.00;;;15.60
15626;BMP180;7912;51.376;6.126;2024-02-04T14:24:00;101741.00;;;15.70
15626;BMP180;7912;51.376;6.126;2024-02-04T14:26:27;101746.00;;;15.70
15626;BMP180;7912;51.376;6.126;2024-02-04T14:28:55;101732.00;;;15.80
15626;BMP180;7912;51.376;6.126;2024-02-04T14:31:22;101724.00;;;15.80